Time;durP1;ratioP1;P1;durP2;ratioP2;P2;SDS_P1;SDS_P2;PMS_P1;PMS_P2;Temp;Humidity;BMP_temperature;BMP_pressure;BME280_temperature;BME280_humidity;BME280_pressure;Samples;Min_cycle;Max_cycle;Signal;HPM_P1;HPM_P2
2021/09/11 00:00:15;;;;;;;;;;;;;;;18.07;67.55;97058.41;30001;983;1879;-64
2021/09/11 00:00:46;;;;;;;;;;;;;;;18.06;67.96;97054.06;30001;983;1875;-62
2021/09/11 00:01:16;;;;;;;;;;;;;;;18.08;67.67;97060.00;30001;983;1862;-63
2021/09/11 00:01:48;;;;;;;;;;;;;;;18.08;68.29;97067.44;30001;983;1871;-64
2021/09/11 00:02:18;;;;;;;;;;;;;;;18.06;67.80;97059.53;30001;983;1879;-64
2021/09/11 00:02:49;;;;;;;;;;;;;;;18.05;67.98;97063.44;30001;983;1875;-63
2021/09/11 00:03:21;;;;;;;;;;;;;;;18.05;68.02;97066.19;30001;983;1880;-63
2021/09/11 00:03:52;;;;;;;;;;;;;;;18.04;68.77;97056.34;30001;983;1875;-64
2021/09/11 00:04:23;;;;;;;;;;;;;;;18.03;68.50;97057.47;30001;983;1880;-62
2021/09/11 00:04:54;;;;;;;;;;;;;;;18.02;68.71;97057.81;30001;982;1875;-63
2021/09/11 00:05:25;;;;;;;;;;;;;;;18.04;68.59;97061.81;30001;982;1880;-62
2021/09/11 00:05:57;;;;;;;;;;;;;;;18.08;68.36;97057.28;30001;982;1876;-64
2021/09/11 00:06:30;;;;;;;;;;;;;;;18.11;68.04;97065.97;30001;982;1863;-64
2021/09/11 00:07:00;;;;;;;;;;;;;;;18.11;67.80;97057.75;30001;982;1871;-63
2021/09/11 00:07:32;;;;;;;;;;;;;;;18.10;67.78;97056.94;30001;983;1879;-63
2021/09/11 00:08:03;;;;;;;;;;;;;;;18.10;67.42;97054.19;30001;983;1875;-63
2021/09/11 00:08:34;;;;;;;;;;;;;;;18.08;67.58;97060.00;30001;983;1879;-63
2021/09/11 00:09:05;;;;;;;;;;;;;;;18.07;68.08;97054.84;30001;983;1875;-64
2021/09/11 00:09:37;;;;;;;;;;;;;;;18.04;67.99;97053.59;30001;983;1879;-62
2021/09/11 00:10:09;;;;;;;;;;;;;;;18.04;68.12;97050.84;30001;983;1875;-63
2021/09/11 00:10:39;;;;;;;;;;;;;;;18.04;68.04;97052.78;30001;983;1862;-63
2021/09/11 00:11:11;;;;;;;;;;;;;;;18.04;68.12;97050.03;30001;983;1871;-63
2021/09/11 00:11:42;;;;;;;;;;;;;;;18.04;67.81;97045.34;30001;983;1880;-63
2021/09/11 00:12:13;;;;;;;;;;;;;;;18.14;67.52;97048.81;30001;982;1875;-64
2021/09/11 00:12:45;;;;;;;;;;;;;;;18.18;67.03;97049.75;30001;982;1880;-64
2021/09/11 00:13:16;;;;;;;;;;;;;;;18.18;67.20;97049.75;30001;985;1866;-63
2021/09/11 00:13:47;;;;;;;;;;;;;;;18.17;67.00;97048.16;30001;982;1880;-63
2021/09/11 00:14:18;;;;;;;;;;;;;;;18.14;67.41;97044.13;30001;982;1876;-62
2021/09/11 00:14:49;;;;;;;;;;;;;;;18.13;67.21;97036.22;30001;983;1879;-63
2021/09/11 00:15:20;;;;;;;;;;;;;;;18.11;67.49;97044.81;30001;983;1875;-62
2021/09/11 00:15:51;;;;;;;;;;;;;;;18.09;67.62;97047.88;30001;983;1862;-62
2021/09/11 00:16:21;;;;;;;;;;;;;;;18.06;67.67;97040.31;30001;983;1871;-64
2021/09/11 00:16:52;;;;;;;;;;;;;;;18.05;67.49;97041.47;30001;983;1879;-62
2021/09/11 00:17:24;;;;;;;;;;;;;;;18.08;67.55;97040.78;30001;983;1858;-62
2021/09/11 00:17:55;;;;;;;;;;;;;;;18.06;67.44;97043.06;30001;983;1875;-63
2021/09/11 00:18:25;;;;;;;;;;;;;;;18.06;67.49;97045.81;30001;983;1858;-65
2021/09/11 00:18:57;;;;;;;;;;;;;;;18.07;67.83;97043.87;30001;982;1875;-63
2021/09/11 00:19:28;;;;;;;;;;;;;;;18.06;67.79;97040.31;30001;982;1858;-63
2021/09/11 00:19:59;;;;;;;;;;;;;;;18.06;67.56;97048.56;30001;982;1858;-62
2021/09/11 00:20:29;;;;;;;;;;;;;;;18.12;67.69;97045.63;30001;982;1876;-62
2021/09/11 00:21:00;;;;;;;;;;;;;;;18.14;67.26;97040.59;30001;982;1880;-63
2021/09/11 00:21:31;;;;;;;;;;;;;;;18.13;67.39;97041.72;30001;982;1876;-62
2021/09/11 00:22:03;;;;;;;;;;;;;;;18.14;67.12;97044.13;30001;982;1880;-63
2021/09/11 00:22:34;;;;;;;;;;;;;;;18.13;67.46;97041.72;30001;983;1875;-62
2021/09/11 00:23:08;;;;;;;;;;;;;;;18.10;67.32;97045.94;30001;983;1879;-62
2021/09/11 00:23:40;;;;;;;;;;;;;;;18.09;67.57;97045.16;30001;983;1875;-62
2021/09/11 00:24:11;;;;;;;;;;;;;;;18.06;67.61;97037.56;30001;983;1879;-64
2021/09/11 00:24:43;;;;;;;;;;;;;;;18.04;67.59;97037.13;30001;983;1858;-63
2021/09/11 00:25:14;;;;;;;;;;;;;;;18.06;67.56;97043.06;30001;983;1875;-57
2021/09/11 00:25:45;;;;;;;;;;;;;;;18.06;67.56;97045.81;30001;983;1875;-60
2021/09/11 00:26:16;;;;;;;;;;;;;;;18.05;67.94;97044.22;30001;983;1862;-63
2021/09/11 00:26:46;;;;;;;;;;;;;;;18.03;68.31;97038.25;30001;982;1871;-64
2021/09/11 00:27:18;;;;;;;;;;;;;;;18.01;68.11;97032.31;30001;982;1880;-64
2021/09/11 00:27:49;;;;;;;;;;;;;;;17.99;68.24;97037.34;30001;982;1876;-62
2021/09/11 00:28:20;;;;;;;;;;;;;;;17.97;68.05;97039.62;30001;982;1880;-64
2021/09/11 00:28:51;;;;;;;;;;;;;;;17.96;67.96;97042.72;30001;982;1876;-63
2021/09/11 00:29:23;;;;;;;;;;;;;;;17.95;68.11;97041.91;30001;982;1880;-63
2021/09/11 00:29:54;;;;;;;;;;;;;;;17.95;68.31;97041.91;30001;983;1875;-63
2021/09/11 00:30:24;;;;;;;;;;;;;;;17.94;68.06;97039.50;30001;983;1879;-63
2021/09/11 00:30:55;;;;;;;;;;;;;;;17.94;68.32;97040.28;30001;983;1857;-63
2021/09/11 00:31:26;;;;;;;;;;;;;;;17.94;68.33;97045.78;30001;983;1858;-63
2021/09/11 00:31:58;;;;;;;;;;;;;;;17.93;68.34;97043.37;30001;983;1875;-63
2021/09/11 00:32:30;;;;;;;;;;;;;;;17.93;68.07;97041.44;30001;983;1880;-62
2021/09/11 00:33:00;;;;;;;;;;;;;;;17.93;68.37;97043.37;30001;983;1875;-63
2021/09/11 00:33:33;;;;;;;;;;;;;;;17.93;68.08;97038.69;30001;987;1871;-63
2021/09/11 00:34:04;;;;;;;;;;;;;;;17.94;68.35;97043.03;30001;982;1880;-62
2021/09/11 00:34:35;;;;;;;;;;;;;;;17.95;67.96;97036.41;30001;982;1875;-63
2021/09/11 00:35:13;;;;;;;;;;;;;;;17.96;67.88;97040.75;30001;982;1862;-62
2021/09/11 00:35:44;;;;;;;;;;;;;;;17.93;67.84;97033.19;30001;982;1871;-63
2021/09/11 00:36:15;;;;;;;;;;;;;;;17.93;68.14;97035.13;30001;982;1880;-63
2021/09/11 00:36:48;;;;;;;;;;;;;;;17.93;67.93;97046.94;30001;982;1875;-64
2021/09/11 00:37:19;;;;;;;;;;;;;;;17.91;68.21;97040.97;30001;983;1862;-63
2021/09/11 00:37:49;;;;;;;;;;;;;;;17.90;68.00;97039.38;30001;983;1871;-63
2021/09/11 00:38:20;;;;;;;;;;;;;;;17.91;68.30;97045.66;30001;983;1879;-64
2021/09/11 00:38:51;;;;;;;;;;;;;;;17.89;68.12;97043.25;30001;983;1875;-62
2021/09/11 00:39:23;;;;;;;;;;;;;;;17.90;68.36;97044.84;30001;982;1879;-64
2021/09/11 00:39:54;;;;;;;;;;;;;;;17.90;68.11;97044.84;30001;983;1875;-64
2021/09/11 00:40:25;;;;;;;;;;;;;;;17.90;68.39;97039.38;30001;983;1880;-63
2021/09/11 00:40:56;;;;;;;;;;;;;;;17.89;68.79;97043.25;30001;983;1875;-65
2021/09/11 00:41:27;;;;;;;;;;;;;;;17.87;68.33;97042.78;30001;982;1880;-64
2021/09/11 00:41:58;;;;;;;;;;;;;;;17.88;68.52;97040.84;30001;982;1875;-64
2021/09/11 00:42:29;;;;;;;;;;;;;;;17.87;68.86;97042.78;30001;982;1862;-64
2021/09/11 00:42:59;;;;;;;;;;;;;;;17.87;68.68;97044.72;30001;982;1871;-64
2021/09/11 00:43:34;;;;;;;;;;;;;;;17.86;68.84;97043.09;30001;982;1880;-63
2021/09/11 00:44:05;;;;;;;;;;;;;;;17.86;68.72;97043.91;30001;982;1876;-63
2021/09/11 00:44:36;;;;;;;;;;;;;;;17.86;69.10;97043.91;30001;982;1880;-63
2021/09/11 00:45:08;;;;;;;;;;;;;;;17.86;68.82;97043.09;30001;983;1875;-63
2021/09/11 00:45:38;;;;;;;;;;;;;;;17.85;69.08;97045.06;30001;983;1879;-63
2021/09/11 00:46:10;;;;;;;;;;;;;;;17.85;69.07;97041.50;30001;983;1875;-64
2021/09/11 00:46:40;;;;;;;;;;;;;;;17.85;68.81;97042.31;30001;983;1879;-64
2021/09/11 00:47:11;;;;;;;;;;;;;;;17.84;68.76;97045.38;30001;983;1875;-63
2021/09/11 00:47:43;;;;;;;;;;;;;;;17.83;69.00;97047.31;30001;983;1862;-62
2021/09/11 00:48:13;;;;;;;;;;;;;;;17.83;68.85;97044.59;30001;983;1871;-64
2021/09/11 00:48:45;;;;;;;;;;;;;;;17.82;69.30;97048.47;30001;983;1880;-64
2021/09/11 00:49:15;;;;;;;;;;;;;;;17.82;69.01;97048.47;30001;982;1875;-64
2021/09/11 00:49:46;;;;;;;;;;;;;;;17.82;69.07;97042.97;30001;982;1880;-64
2021/09/11 00:50:18;;;;;;;;;;;;;;;17.82;69.32;97042.16;30001;982;1876;-62
2021/09/11 00:50:50;;;;;;;;;;;;;;;17.82;69.40;97042.16;30001;982;1880;-63
2021/09/11 00:51:20;;;;;;;;;;;;;;;17.84;69.25;97045.38;30001;982;1876;-62
2021/09/11 00:51:51;;;;;;;;;;;;;;;17.84;69.01;97039.91;30001;983;1879;-64
2021/09/11 00:52:22;;;;;;;;;;;;;;;17.84;68.97;97046.19;30001;987;1763;-63
2021/09/11 00:52:53;;;;;;;;;;;;;;;17.84;69.22;97046.19;30001;983;1862;-63
2021/09/11 00:53:24;;;;;;;;;;;;;;;17.84;69.02;97046.19;30001;983;1870;-63
2021/09/11 00:53:55;;;;;;;;;;;;;;;17.84;69.53;97057.16;30001;983;1879;-64
2021/09/11 00:54:26;;;;;;;;;;;;;;;17.82;69.30;97051.22;30001;983;1875;-63
2021/09/11 00:54:57;;;;;;;;;;;;;;;17.81;69.57;97052.34;30001;983;1880;-63
2021/09/11 00:55:28;;;;;;;;;;;;;;;17.80;69.33;97044.44;30001;983;1875;-63
2021/09/11 00:55:59;;;;;;;;;;;;;;;17.80;69.67;97053.47;30001;983;1880;-57
2021/09/11 00:56:32;;;;;;;;;;;;;;;17.81;69.41;97055.09;30001;983;1875;-63
2021/09/11 00:57:04;;;;;;;;;;;;;;;17.82;69.40;97048.47;30001;982;1880;-64
2021/09/11 00:57:36;;;;;;;;;;;;;;;17.84;69.13;97040.69;30001;982;1876;-63
2021/09/11 00:58:07;;;;;;;;;;;;;;;17.91;69.07;97043.72;30001;982;1862;-64
2021/09/11 00:58:38;;;;;;;;;;;;;;;17.93;68.62;97049.66;30001;982;1871;-62
2021/09/11 00:59:09;;;;;;;;;;;;;;;17.93;68.59;97049.66;30001;983;1879;-64
2021/09/11 00:59:40;;;;;;;;;;;;;;;17.91;68.76;97043.72;30001;983;1875;-63
2021/09/11 01:00:12;;;;;;;;;;;;;;;17.90;69.01;97049.53;30001;983;1879;-64
2021/09/11 01:00:42;;;;;;;;;;;;;;;17.90;68.85;97049.53;30001;983;1875;-61
2021/09/11 01:01:13;;;;;;;;;;;;;;;17.90;69.06;97050.34;30001;983;1862;-64
2021/09/11 01:01:44;;;;;;;;;;;;;;;17.92;68.65;97050.81;30001;983;1871;-63
2021/09/11 01:02:15;;;;;;;;;;;;;;;17.93;68.73;97044.19;30001;983;1879;-64
2021/09/11 01:02:46;;;;;;;;;;;;;;;17.92;68.62;97042.56;30001;983;1875;-64
2021/09/11 01:03:16;;;;;;;;;;;;;;;17.92;68.52;97050.81;30001;983;1880;-64
2021/09/11 01:03:48;;;;;;;;;;;;;;;17.89;68.47;97048.72;30001;983;1875;-64
2021/09/11 01:04:18;;;;;;;;;;;;;;;17.88;68.92;97047.12;30001;982;1880;-65
2021/09/11 01:04:49;;;;;;;;;;;;;;;17.87;69.24;97045.53;30001;982;1875;-65
2021/09/11 01:05:20;;;;;;;;;;;;;;;17.84;68.92;97048.94;30001;982;1862;-63
2021/09/11 01:05:51;;;;;;;;;;;;;;;17.83;69.15;97047.31;30001;982;1871;-65
2021/09/11 01:06:23;;;;;;;;;;;;;;;17.81;70.04;97046.84;30001;982;1880;-63
2021/09/11 01:06:55;;;;;;;;;;;;;;;17.79;69.99;97046.38;30001;983;1875;-63
2021/09/11 01:07:29;;;;;;;;;;;;;;;17.79;69.82;97048.34;30001;983;1879;-63
2021/09/11 01:08:00;;;;;;;;;;;;;;;17.75;70.09;97042.72;30001;983;1875;-65
2021/09/11 01:08:33;;;;;;;;;;;;;;;17.72;69.96;97049.66;30001;983;1879;-62
2021/09/11 01:09:04;;;;;;;;;;;;;;;17.73;69.61;97043.03;30001;983;1875;-65
2021/09/11 01:09:36;;;;;;;;;;;;;;;17.72;69.81;97049.66;30001;983;1879;-65
2021/09/11 01:10:10;;;;;;;;;;;;;;;17.72;69.80;97048.88;30001;983;1875;-63
2021/09/11 01:10:49;;;;;;;;;;;;;;;17.73;70.46;97050.47;30001;983;1862;-65
2021/09/11 01:11:20;;;;;;;;;;;;;;;17.71;70.29;97047.25;30001;983;1871;-65
2021/09/11 01:11:52;;;;;;;;;;;;;;;17.71;70.38;97044.50;30001;982;1880;-65
2021/09/11 01:12:22;;;;;;;;;;;;;;;17.70;71.42;97046.44;30001;982;1875;-65
2021/09/11 01:12:54;;;;;;;;;;;;;;;17.66;72.57;97052.97;30001;982;1880;-64
2021/09/11 01:13:25;;;;;;;;;;;;;;;17.65;71.54;97051.37;30001;982;1876;-66
2021/09/11 01:13:57;;;;;;;;;;;;;;;17.63;71.63;97051.66;30001;982;1880;-64
2021/09/11 01:14:28;;;;;;;;;;;;;;;17.63;71.78;97045.38;30001;983;1857;-64
2021/09/11 01:15:03;;;;;;;;;;;;;;;17.61;72.65;97053.13;30001;983;1875;-63
2021/09/11 01:15:35;;;;;;;;;;;;;;;17.59;72.75;97047.97;30001;983;1875;-64
2021/09/11 01:16:07;;;;;;;;;;;;;;;17.57;72.04;97046.72;30001;983;1879;-64
2021/09/11 01:16:37;;;;;;;;;;;;;;;17.56;72.24;97045.91;30001;983;1875;-65
2021/09/11 01:17:15;;;;;;;;;;;;;;;17.55;72.22;97049.78;30001;983;1879;-64
2021/09/11 01:17:47;;;;;;;;;;;;;;;17.60;71.90;97054.28;30001;983;1875;-63
2021/09/11 01:18:17;;;;;;;;;;;;;;;17.62;71.99;97050.06;30001;983;1862;-63
2021/09/11 01:18:48;;;;;;;;;;;;;;;17.72;71.26;97044.19;30001;983;1871;-66
2021/09/11 01:19:19;;;;;;;;;;;;;;;17.71;71.49;97042.56;30001;982;1880;-65
2021/09/11 01:19:50;;;;;;;;;;;;;;;17.69;71.32;97052.28;30001;982;1875;-65
2021/09/11 01:20:21;;;;;;;;;;;;;;;17.66;71.36;97050.22;30001;982;1862;-63
2021/09/11 01:20:52;;;;;;;;;;;;;;;17.62;72.29;97050.06;30001;982;1854;-64
2021/09/11 01:21:23;;;;;;;;;;;;;;;17.58;71.74;97053.81;30001;982;1880;-63
2021/09/11 01:21:55;;;;;;;;;;;;;;;17.56;71.79;97045.09;30001;983;1875;-65
2021/09/11 01:22:25;;;;;;;;;;;;;;;17.54;71.88;97050.13;30001;983;1879;-63
2021/09/11 01:22:57;;;;;;;;;;;;;;;17.52;71.99;97044.16;30001;983;1875;-65
2021/09/11 01:23:28;;;;;;;;;;;;;;;17.55;72.18;97046.22;30001;983;1879;-65
2021/09/11 01:23:59;;;;;;;;;;;;;;;17.54;72.12;97053.66;30001;983;1875;-63
2021/09/11 01:24:29;;;;;;;;;;;;;;;17.55;72.20;97048.97;30001;983;1879;-63
2021/09/11 01:25:03;;;;;;;;;;;;;;;17.53;71.80;97052.06;30001;986;1875;-62
2021/09/11 01:25:34;;;;;;;;;;;;;;;17.53;71.89;97049.31;30001;983;1880;-63
2021/09/11 01:26:05;;;;;;;;;;;;;;;17.53;72.16;97054.00;30001;982;1858;-64
2021/09/11 01:26:35;;;;;;;;;;;;;;;17.52;72.06;97049.63;30001;982;1875;-63
2021/09/11 01:27:06;;;;;;;;;;;;;;;17.52;72.11;97057.88;30001;982;1875;-64
2021/09/11 01:27:37;;;;;;;;;;;;;;;17.52;72.09;97060.63;30001;982;1880;-64
2021/09/11 01:28:08;;;;;;;;;;;;;;;17.54;71.98;97052.84;30001;982;1876;-65
2021/09/11 01:28:39;;;;;;;;;;;;;;;17.53;71.88;97049.31;30001;982;1880;-64
2021/09/11 01:29:11;;;;;;;;;;;;;;;17.52;71.87;97055.12;30001;982;1858;-63
2021/09/11 01:29:41;;;;;;;;;;;;;;;17.52;72.43;97055.12;30001;983;1875;-64
2021/09/11 01:30:14;;;;;;;;;;;;;;;17.50;71.91;97057.41;30001;983;1875;-63
2021/09/11 01:30:45;;;;;;;;;;;;;;;17.50;72.26;97057.41;30001;983;1880;-63
2021/09/11 01:31:16;;;;;;;;;;;;;;;17.52;72.51;97055.12;30001;983;1778;-63
2021/09/11 01:31:47;;;;;;;;;;;;;;;17.51;72.25;97054.31;30001;983;1879;-63
2021/09/11 01:32:17;;;;;;;;;;;;;;;17.50;72.28;97052.72;30001;983;1875;-63
2021/09/11 01:32:49;;;;;;;;;;;;;;;17.50;72.37;97051.91;30001;983;1880;-63
2021/09/11 01:33:20;;;;;;;;;;;;;;;17.47;73.89;97053.38;30001;983;1875;-63
2021/09/11 01:33:50;;;;;;;;;;;;;;;17.43;73.69;97050.50;30001;982;1862;-63
2021/09/11 01:34:21;;;;;;;;;;;;;;;17.39;73.12;97055.03;30001;982;1871;-63
2021/09/11 01:34:52;;;;;;;;;;;;;;;17.37;72.90;97051.81;30001;982;1880;-63
2021/09/11 01:35:23;;;;;;;;;;;;;;;17.35;72.92;97051.34;30001;982;1858;-63
2021/09/11 01:35:54;;;;;;;;;;;;;;;17.35;73.66;97056.03;30001;982;1876;-64
2021/09/11 01:36:25;;;;;;;;;;;;;;;17.33;73.87;97042.66;30001;982;1876;-62
2021/09/11 01:36:56;;;;;;;;;;;;;;;17.32;74.36;97045.75;30001;983;1879;-63
2021/09/11 01:37:27;;;;;;;;;;;;;;;17.29;73.54;97047.22;30001;983;1857;-62
2021/09/11 01:37:58;;;;;;;;;;;;;;;17.30;74.00;97051.56;30001;983;1857;-62
2021/09/11 01:38:29;;;;;;;;;;;;;;;17.30;74.01;97045.28;30001;983;1857;-62
2021/09/11 01:39:00;;;;;;;;;;;;;;;17.28;74.64;97051.09;30001;964;1894;-62
2021/09/11 01:39:30;;;;;;;;;;;;;;;17.27;74.70;97049.50;30001;983;1858;-62
2021/09/11 01:40:02;;;;;;;;;;;;;;;17.26;74.25;97047.88;30001;983;1875;-63
2021/09/11 01:40:33;;;;;;;;;;;;;;;17.26;74.21;97047.88;30001;983;1858;-62
2021/09/11 01:41:04;;;;;;;;;;;;;;;17.26;74.21;97050.63;30001;982;1875;-64
2021/09/11 01:41:35;;;;;;;;;;;;;;;17.26;74.48;97047.06;30001;982;1875;-63
2021/09/11 01:42:05;;;;;;;;;;;;;;;17.25;74.19;97040.00;30001;982;1860;-62
2021/09/11 01:42:37;;;;;;;;;;;;;;;17.24;73.85;97044.66;30001;982;1876;-62
2021/09/11 01:43:08;;;;;;;;;;;;;;;17.25;74.66;97042.72;30001;982;1862;-65
2021/09/11 01:43:39;;;;;;;;;;;;;;;17.24;75.06;97050.16;30001;982;1871;-62
2021/09/11 01:44:09;;;;;;;;;;;;;;;17.22;75.02;97044.19;30001;982;1863;-62
2021/09/11 01:45:00;;;;;;;;;;;;;;;17.21;74.53;97048.06;30001;983;1871;-64
2021/09/11 01:45:31;;;;;;;;;;;;;;;17.19;75.03;97041.31;30001;983;1879;-64
2021/09/11 01:46:01;;;;;;;;;;;;;;;17.18;75.06;97051.47;30001;983;1875;-62
2021/09/11 01:46:32;;;;;;;;;;;;;;;17.17;74.79;97055.34;30001;983;1879;-65
2021/09/11 01:47:03;;;;;;;;;;;;;;;17.17;74.82;97049.88;30001;983;1858;-67
2021/09/11 01:47:35;;;;;;;;;;;;;;;17.17;74.78;97049.88;30001;983;1875;-68
2021/09/11 01:48:05;;;;;;;;;;;;;;;17.17;75.33;97054.53;30001;983;1875;-63
2021/09/11 01:48:37;;;;;;;;;;;;;;;17.16;75.14;97056.47;30001;982;1880;-64
2021/09/11 01:49:09;;;;;;;;;;;;;;;17.15;75.15;97049.38;30001;982;1875;-62
2021/09/11 01:49:41;;;;;;;;;;;;;;;17.15;75.39;97057.63;30001;982;1880;-62
2021/09/11 01:50:13;;;;;;;;;;;;;;;17.14;75.18;97057.94;30001;987;1876;-62
2021/09/11 01:50:43;;;;;;;;;;;;;;;17.13;74.95;97051.66;30001;982;1880;-65
2021/09/11 01:51:14;;;;;;;;;;;;;;;17.13;75.11;97061.81;30001;982;1876;-62
2021/09/11 01:51:46;;;;;;;;;;;;;;;17.16;74.92;97061.97;30001;982;1816;-63
2021/09/11 01:52:20;;;;;;;;;;;;;;;17.18;74.66;97056.97;30001;983;1857;-63
2021/09/11 01:52:51;;;;;;;;;;;;;;;17.18;74.75;97061.63;30001;983;1875;-62
2021/09/11 01:53:23;;;;;;;;;;;;;;;17.18;74.56;97062.44;30001;983;1875;-63
2021/09/11 01:53:53;;;;;;;;;;;;;;;17.19;75.16;97060.50;30001;983;1879;-65
2021/09/11 01:54:24;;;;;;;;;;;;;;;17.16;75.95;97064.72;30001;983;1858;-64
2021/09/11 01:54:55;;;;;;;;;;;;;;;17.15;75.43;97063.09;30001;983;1875;-63
2021/09/11 01:55:26;;;;;;;;;;;;;;;17.13;75.51;97065.38;30001;983;1875;-63
2021/09/11 01:55:57;;;;;;;;;;;;;;;17.12;75.06;97061.03;30001;977;1897;-63
2021/09/11 01:56:28;;;;;;;;;;;;;;;17.12;75.21;97069.25;30001;973;1895;-63
2021/09/11 01:56:58;;;;;;;;;;;;;;;17.14;75.24;97066.16;30001;982;1880;-64
2021/09/11 01:57:29;;;;;;;;;;;;;;;17.15;75.09;97056.81;30001;982;1876;-64
2021/09/11 01:58:00;;;;;;;;;;;;;;;17.16;75.17;97064.72;30001;982;1880;-63
2021/09/11 01:58:31;;;;;;;;;;;;;;;17.14;75.11;97061.50;30001;982;1876;-64
2021/09/11 01:59:02;;;;;;;;;;;;;;;17.15;75.10;97067.78;30001;983;1862;-63
2021/09/11 01:59:33;;;;;;;;;;;;;;;17.13;75.23;97065.38;30001;983;1871;-63
2021/09/11 02:00:11;;;;;;;;;;;;;;;17.12;75.59;97063.75;30001;983;1879;-63
2021/09/11 02:00:43;;;;;;;;;;;;;;;17.10;75.64;97066.03;30001;983;1875;-63
2021/09/11 02:01:14;;;;;;;;;;;;;;;17.11;75.40;97067.63;30001;983;1879;-63
2021/09/11 02:01:45;;;;;;;;;;;;;;;17.10;75.22;97066.03;30001;983;1875;-63
2021/09/11 02:02:16;;;;;;;;;;;;;;;17.11;75.07;97073.13;30001;983;1880;-64
2021/09/11 02:02:47;;;;;;;;;;;;;;;17.11;75.38;97067.63;30001;983;1875;-64
2021/09/11 02:03:18;;;;;;;;;;;;;;;17.11;75.00;97067.63;30001;983;1880;-63
2021/09/11 02:03:49;;;;;;;;;;;;;;;17.10;74.99;97066.03;30001;982;1875;-63
2021/09/11 02:04:20;;;;;;;;;;;;;;;17.11;75.45;97073.13;30001;982;1862;-63
2021/09/11 02:04:50;;;;;;;;;;;;;;;17.11;75.26;97069.56;30001;982;1871;-64
2021/09/11 02:05:21;;;;;;;;;;;;;;;17.11;75.13;97073.13;30001;982;1880;-62
2021/09/11 02:05:52;;;;;;;;;;;;;;;17.10;75.39;97077.00;30001;982;1876;-62
2021/09/11 02:06:23;;;;;;;;;;;;;;;17.11;75.37;97070.38;30001;983;1797;-63
2021/09/11 02:06:54;;;;;;;;;;;;;;;17.11;75.23;97070.38;30001;983;1875;-63
2021/09/11 02:07:24;;;;;;;;;;;;;;;17.11;75.82;97073.13;30001;983;1880;-63
2021/09/11 02:07:55;;;;;;;;;;;;;;;17.08;75.77;97073.78;30001;983;1875;-59
2021/09/11 02:08:26;;;;;;;;;;;;;;;17.08;75.67;97071.03;30001;983;1862;-63
2021/09/11 02:08:57;;;;;;;;;;;;;;;17.08;75.66;97068.28;30001;983;1871;-64
2021/09/11 02:09:29;;;;;;;;;;;;;;;17.09;75.69;97069.91;30001;983;1866;-65
2021/09/11 02:09:59;;;;;;;;;;;;;;;17.10;75.83;97077.00;30001;983;1858;-64
2021/09/11 02:10:30;;;;;;;;;;;;;;;17.09;75.77;97073.44;30001;983;1884;-63
2021/09/11 02:11:01;;;;;;;;;;;;;;;17.09;76.28;97072.66;30001;983;1849;-64
2021/09/11 02:11:32;;;;;;;;;;;;;;;17.08;76.38;97071.03;30001;982;1884;-64
2021/09/11 02:12:03;;;;;;;;;;;;;;;17.10;76.12;97074.25;30001;982;1880;-63
2021/09/11 02:12:35;;;;;;;;;;;;;;;17.08;76.59;97074.56;30001;982;1867;-63
2021/09/11 02:13:05;;;;;;;;;;;;;;;17.08;76.41;97071.03;30001;982;1876;-63
2021/09/11 02:13:36;;;;;;;;;;;;;;;17.08;76.54;97071.03;30001;959;1865;-63
2021/09/11 02:14:07;;;;;;;;;;;;;;;17.08;76.67;97068.28;30001;983;1879;-63
2021/09/11 02:14:38;;;;;;;;;;;;;;;17.07;77.02;97066.69;30001;983;1884;-63
2021/09/11 02:15:10;;;;;;;;;;;;;;;17.07;76.84;97077.66;30001;983;1879;-63
2021/09/11 02:15:41;;;;;;;;;;;;;;;17.07;76.87;97077.66;30001;983;1884;-64
2021/09/11 02:16:11;;;;;;;;;;;;;;;17.06;76.84;97073.31;30001;983;1879;-62
2021/09/11 02:16:45;;;;;;;;;;;;;;;17.07;76.94;97069.44;30001;983;1884;-64
2021/09/11 02:17:16;;;;;;;;;;;;;;;17.07;76.71;97072.97;30001;983;1880;-64
2021/09/11 02:17:47;;;;;;;;;;;;;;;17.08;76.91;97063.62;30001;983;1866;-63
2021/09/11 02:18:18;;;;;;;;;;;;;;;17.12;76.08;97071.97;30001;985;1875;-62
2021/09/11 02:18:48;;;;;;;;;;;;;;;17.13;76.32;97073.59;30001;982;1867;-62
2021/09/11 02:19:20;;;;;;;;;;;;;;;17.14;76.29;97071.66;30001;982;1875;-63
2021/09/11 02:19:51;;;;;;;;;;;;;;;17.12;76.05;97074.72;30001;982;1810;-63
2021/09/11 02:20:22;;;;;;;;;;;;;;;17.12;76.33;97068.44;30001;982;1880;-63
2021/09/11 02:20:55;;;;;;;;;;;;;;;17.09;76.58;97072.66;30001;982;1884;-64
2021/09/11 02:21:26;;;;;;;;;;;;;;;17.09;76.50;97070.69;30001;983;1879;-62
2021/09/11 02:21:57;;;;;;;;;;;;;;;17.07;76.65;97064.75;30001;983;1883;-62
2021/09/11 02:22:28;;;;;;;;;;;;;;;17.08;76.41;97073.78;30001;983;1879;-63
2021/09/11 02:22:59;;;;;;;;;;;;;;;17.07;76.61;97067.50;30001;983;1884;-63
2021/09/11 02:23:29;;;;;;;;;;;;;;;17.07;76.30;97072.16;30001;983;1862;-63
2021/09/11 02:24:00;;;;;;;;;;;;;;;17.06;76.48;97070.56;30001;983;1879;-63
2021/09/11 02:24:31;;;;;;;;;;;;;;;17.07;76.44;97066.69;30001;983;1880;-63
2021/09/11 02:25:02;;;;;;;;;;;;;;;17.05;76.45;97067.00;30001;983;1884;-62
2021/09/11 02:25:33;;;;;;;;;;;;;;;17.05;76.31;97066.22;30001;982;1847;-63
2021/09/11 02:26:04;;;;;;;;;;;;;;;17.04;76.39;97062.66;30001;982;1884;-64
2021/09/11 02:26:35;;;;;;;;;;;;;;;17.04;76.14;97064.59;30001;982;1880;-63
2021/09/11 02:27:06;;;;;;;;;;;;;;;17.03;76.39;97060.25;30001;982;1884;-63
2021/09/11 02:27:38;;;;;;;;;;;;;;;17.02;76.42;97066.87;30001;982;1880;-65
2021/09/11 02:28:09;;;;;;;;;;;;;;;17.02;77.02;97064.13;30001;982;1867;-62
2021/09/11 02:28:40;;;;;;;;;;;;;;;16.99;76.76;97060.09;30001;982;1876;-63
2021/09/11 02:29:11;;;;;;;;;;;;;;;16.98;77.37;97063.97;30001;983;1884;-63
2021/09/11 02:29:42;;;;;;;;;;;;;;;16.99;77.13;97064.78;30001;983;1879;-63
2021/09/11 02:30:12;;;;;;;;;;;;;;;16.97;77.57;97061.59;30001;983;1884;-63
2021/09/11 02:30:43;;;;;;;;;;;;;;;16.96;76.79;97065.47;30001;983;1880;-63
2021/09/11 02:31:14;;;;;;;;;;;;;;;16.97;76.94;97061.59;30001;983;1884;-58
2021/09/11 02:31:45;;;;;;;;;;;;;;;16.98;76.86;97058.50;30001;983;1880;-64
2021/09/11 02:32:16;;;;;;;;;;;;;;;16.96;77.23;97063.53;30001;983;1884;-63
2021/09/11 02:32:47;;;;;;;;;;;;;;;16.97;77.11;97061.59;30001;983;1862;-64
2021/09/11 02:33:18;;;;;;;;;;;;;;;16.96;76.97;97060.00;30001;982;1880;-63
2021/09/11 02:33:49;;;;;;;;;;;;;;;16.96;76.61;97065.47;30001;982;1880;-63
2021/09/11 02:34:20;;;;;;;;;;;;;;;16.96;76.85;97060.00;30001;982;1884;-62
2021/09/11 02:34:51;;;;;;;;;;;;;;;16.96;76.58;97055.31;30001;982;1880;-62
2021/09/11 02:35:22;;;;;;;;;;;;;;;16.98;76.33;97068.69;30001;982;1884;-63
2021/09/11 02:35:53;;;;;;;;;;;;;;;16.98;76.77;97063.19;30001;982;1880;-62
2021/09/11 02:36:24;;;;;;;;;;;;;;;16.98;76.56;97058.50;30001;985;1884;-62
2021/09/11 02:36:55;;;;;;;;;;;;;;;16.99;76.26;97053.81;30001;983;1879;-63
2021/09/11 02:37:25;;;;;;;;;;;;;;;16.99;76.29;97064.78;30001;983;1884;-63
2021/09/11 02:37:56;;;;;;;;;;;;;;;17.01;76.49;97068.81;30001;983;1862;-64
2021/09/11 02:38:27;;;;;;;;;;;;;;;17.00;76.07;97061.72;30001;983;1862;-64
2021/09/11 02:38:58;;;;;;;;;;;;;;;17.00;76.45;97060.91;30001;983;1880;-62
2021/09/11 02:39:29;;;;;;;;;;;;;;;17.01;76.28;97063.31;30001;983;1884;-61
2021/09/11 02:40:00;;;;;;;;;;;;;;;16.99;75.88;97060.09;30001;983;1880;-62
2021/09/11 02:40:30;;;;;;;;;;;;;;;17.00;76.32;97064.44;30001;983;1884;-63
2021/09/11 02:41:02;;;;;;;;;;;;;;;17.01;75.86;97068.00;30001;982;1880;-63
2021/09/11 02:41:33;;;;;;;;;;;;;;;16.99;76.14;97064.78;30001;982;1884;-61
2021/09/11 02:42:06;;;;;;;;;;;;;;;17.01;76.08;97062.50;30001;982;1862;-64
2021/09/11 02:42:37;;;;;;;;;;;;;;;17.00;76.21;97061.72;30001;982;1880;-63
2021/09/11 02:43:08;;;;;;;;;;;;;;;17.00;75.87;97067.19;30001;982;1862;-62
2021/09/11 02:43:38;;;;;;;;;;;;;;;17.01;76.05;97062.50;30001;982;1793;-63
2021/09/11 02:44:09;;;;;;;;;;;;;;;17.00;76.33;97067.19;30001;983;1879;-62
2021/09/11 02:44:40;;;;;;;;;;;;;;;17.00;76.13;97060.91;30001;983;1884;-63
2021/09/11 02:45:11;;;;;;;;;;;;;;;17.00;75.81;97066.37;30001;983;1879;-62
2021/09/11 02:45:42;;;;;;;;;;;;;;;17.01;76.15;97065.25;30001;983;1884;-63
2021/09/11 02:46:15;;;;;;;;;;;;;;;17.01;76.62;97068.81;30001;983;1879;-64
2021/09/11 02:46:46;;;;;;;;;;;;;;;17.00;76.75;97061.72;30001;983;1884;-63
2021/09/11 02:47:18;;;;;;;;;;;;;;;16.99;76.30;97065.59;30001;983;1880;-63